Weather Forecast for Al Bateen Airport  
Wednesday, December 13, 2017 (12:55 UTC)
Al Bateen Executive Airport
ICAO Code: OMAD
IATA Code: AZI
  • METAR OMAD 131200Z 33008KT 310V010 9999 FEW040 24/15 Q1015 NOSIG=
  • TAF OMAD 131100Z 1312/1418 35006KT 8000 FEW035 BECMG 1321/1323 08005KT BECMG 1402/1404 17005KT BECMG 1412/1414 VRB02KT=
AL BATEEN (OMAD) 5 DAY OUTLOOK:
Friday, 15/Dec/2017
HIGH:
25°C
LOW:
17°C
MIN. VISIBILITY:
4000 meters
WIND (DIRECTION/SPEED):
SSE at 15 - 20 knots (28 - 37 km/h) becoming SE at 7 - 10 knots (13 - 19 km/h)
WEATHER:
Dusty in the morning, becoming partly cloudy.
RAINFALL:
Nil
Saturday, 16/Dec/2017
HIGH:
26°C
LOW:
16°C
MIN. VISIBILITY:
2000 meters
WIND (DIRECTION/SPEED):
SE at 15 - 20 knots (28 - 37 km/h) becoming NE at 10 - 15 knots (19 - 28 km/h)
WEATHER:
Partly cloudy with thundershowers in the afternoon.
RAINFALL:
20% chance.
Sunday, 17/Dec/2017
HIGH:
23°C
LOW:
16°C
MIN. VISIBILITY:
6000 meters
WIND (DIRECTION/SPEED):
ESE at 7 - 10 knots (13 - 19 km/h) becoming ENE at 10 - 15 knots (19 - 28 km/h)
WEATHER:
Cloudy with thundershowers.
RAINFALL:
40% chance.
Monday, 18/Dec/2017
HIGH:
23°C
LOW:
17°C
MIN. VISIBILITY:
7000 meters
WIND (DIRECTION/SPEED):
N at 7 - 10 knots (13 - 19 km/h) becoming NW at 10 - 15 knots (19 - 28 km/h)
WEATHER:
Partly Cloudy
RAINFALL:
Nil
Tuesday, 19/Dec/2017
HIGH:
25°C
LOW:
19°C
MIN. VISIBILITY:
4000 meters
WIND (DIRECTION/SPEED):
NE at 7 - 10 knots (13 - 19 km/h)
WEATHER:
Hazy at first otherwise partly cloudy.
RAINFALL:
Nil